createdAt,value
2023-05-05T02:59:37.446Z,0.857143
2023-05-05T03:00:37.944Z,0.857143
2023-05-05T03:01:38.292Z,0.857143
2023-05-05T03:02:38.720Z,1.71429
2023-05-05T03:03:39.101Z,1.71429
2023-05-05T03:04:39.140Z,2.5
2023-05-05T03:05:39.450Z,2.5
2023-05-05T03:06:39.793Z,3.35714
2023-05-05T03:07:40.219Z,4.21429
2023-05-05T03:08:40.600Z,5
2023-05-05T03:09:40.922Z,5.85714
2023-05-05T03:10:41.317Z,6.71429
2023-05-05T03:11:41.597Z,7.5
2023-05-05T03:12:42.074Z,8.35714
2023-05-05T03:13:42.500Z,10
2023-05-05T03:14:43.053Z,11.7143
2023-05-05T03:15:43.456Z,13.3571
2023-05-05T03:16:43.895Z,15
2023-05-05T03:17:44.186Z,16.7143
2023-05-05T03:18:44.427Z,18.3571
2023-05-05T03:19:44.766Z,20.8571
2023-05-05T03:20:45.246Z,23.3571
2023-05-05T03:21:45.583Z,25.8571
2023-05-05T03:22:45.912Z,28.3571
2023-05-05T03:23:46.335Z,31.7143
2023-05-05T03:24:46.841Z,35
2023-05-05T03:25:47.124Z,38.3571
2023-05-05T03:26:47.759Z,41.7143
2023-05-05T03:27:48.225Z,45
2023-05-05T03:28:48.563Z,49.2143
2023-05-05T03:29:48.855Z,54.2143
2023-05-05T03:30:49.158Z,58.3571
2023-05-05T03:31:49.624Z,63.3571
2023-05-05T03:32:49.981Z,69.2143
2023-05-05T03:33:50.193Z,74.2143
2023-05-05T03:34:50.506Z,80
2023-05-05T03:35:50.716Z,85
2023-05-05T03:36:50.995Z,90.8571
2023-05-05T03:37:51.519Z,95.8571
2023-05-05T03:38:51.858Z,101.714
2023-05-05T03:39:52.122Z,107.5
2023-05-05T03:40:52.321Z,114.214
2023-05-05T03:41:52.710Z,120.857
2023-05-05T03:42:52.960Z,127.5
2023-05-05T03:43:53.120Z,135
2023-05-05T03:44:53.477Z,142.5
2023-05-05T03:45:53.744Z,149.214
2023-05-05T03:46:53.927Z,155.857
2023-05-05T03:47:54.348Z,162.5
2023-05-05T03:48:54.583Z,169.214
2023-05-05T03:49:54.983Z,176.714
2023-05-05T03:50:55.237Z,184.214
2023-05-05T03:51:55.583Z,191.714
2023-05-05T03:52:55.964Z,199.214
2023-05-05T03:53:56.367Z,209.214
2023-05-05T03:54:56.697Z,221.714
2023-05-05T03:55:57.005Z,235
2023-05-05T03:56:57.341Z,246.714
2023-05-05T03:57:57.854Z,257.5
2023-05-05T03:58:58.240Z,268.357
2023-05-05T03:59:58.614Z,280
2023-05-05T04:00:59.024Z,293.357
2023-05-05T04:01:59.322Z,309.214
2023-05-05T04:02:59.898Z,325
2023-05-05T04:04:00.195Z,341.714
2023-05-05T04:05:00.429Z,357.5
2023-05-05T04:06:01.008Z,371.714
2023-05-05T04:07:01.409Z,385
2023-05-05T04:08:01.901Z,400
2023-05-05T04:09:02.372Z,414.214
2023-05-05T04:10:02.756Z,428.357
2023-05-05T04:11:03.326Z,437.5
2023-05-05T04:12:03.704Z,445.857
2023-05-05T04:13:04.178Z,466.714
2023-05-05T04:14:04.488Z,493.357
2023-05-05T04:15:04.984Z,515.857
2023-05-05T04:16:05.202Z,535
2023-05-05T04:17:05.587Z,560
2023-05-05T04:18:06.052Z,590.857
2023-05-05T04:19:06.454Z,623.357
2023-05-05T04:20:07.244Z,650
2023-05-05T04:21:07.286Z,665
2023-05-05T04:22:07.565Z,679.214
2023-05-05T04:23:08.232Z,700
2023-05-05T04:24:08.858Z,714.214
2023-05-05T04:25:09.214Z,717.5
2023-05-05T04:26:09.695Z,720
2023-05-05T04:27:10.067Z,730.857
2023-05-05T04:28:10.388Z,742.5
2023-05-05T04:29:10.887Z,750.857
2023-05-05T04:30:11.488Z,750
2023-05-05T04:31:11.819Z,746.714
2023-05-05T04:32:12.329Z,767.5
2023-05-05T04:33:12.861Z,778.357
2023-05-05T04:34:13.310Z,783.357
2023-05-05T04:35:13.848Z,809.214
2023-05-05T04:36:14.363Z,833.357
2023-05-05T04:37:14.800Z,848.357
2023-05-05T04:38:15.513Z,851.714
2023-05-05T04:39:16.022Z,835.857
2023-05-05T04:40:16.418Z,817.5
2023-05-05T04:41:17.039Z,812.5
2023-05-05T04:42:17.381Z,812.5
2023-05-05T04:43:17.726Z,811.714
2023-05-05T04:44:18.225Z,814.214
2023-05-05T04:45:18.598Z,850.857
2023-05-05T04:46:19.232Z,887.5
2023-05-05T04:47:19.716Z,906.714
2023-05-05T04:48:20.345Z,926.714
2023-05-05T04:49:20.826Z,970.857
2023-05-05T04:50:21.519Z,1004.21
2023-05-05T04:51:21.925Z,1030.86
2023-05-05T04:52:22.512Z,1045.86
2023-05-05T04:53:22.943Z,1060.86
2023-05-05T04:54:23.587Z,1046.71
2023-05-05T04:55:24.127Z,1064.21
2023-05-05T04:56:24.779Z,1077.5
2023-05-05T04:57:25.208Z,1092.5
2023-05-05T04:58:25.723Z,1101.71
2023-05-05T04:59:26.277Z,1092.5
2023-05-05T05:00:26.838Z,1141.71
2023-05-05T05:01:27.299Z,1211.71
2023-05-05T05:02:28.027Z,1230
2023-05-05T05:03:28.708Z,1238.36
2023-05-05T05:04:29.273Z,1250
2023-05-05T05:05:29.577Z,1285.86
2023-05-05T05:06:30.160Z,1291.71
2023-05-05T05:07:30.801Z,1306.71
2023-05-05T05:08:31.336Z,1312.5
2023-05-05T05:09:31.863Z,1347.5
2023-05-05T05:10:32.317Z,1356.71
2023-05-05T05:11:32.824Z,1350
2023-05-05T05:12:33.519Z,1360
2023-05-05T05:13:34.170Z,1370
2023-05-05T05:14:34.631Z,1383.36
2023-05-05T05:15:35.349Z,1410
2023-05-05T05:16:36.014Z,1467.5
2023-05-05T05:17:36.694Z,1446.71
2023-05-05T05:18:37.595Z,1391.71
2023-05-05T05:19:38.241Z,1402.5
2023-05-05T05:20:38.821Z,1400.86
2023-05-05T05:21:39.502Z,1404.21
2023-05-05T05:22:40.166Z,1479.21
2023-05-05T05:23:40.156Z,1465.86
2023-05-05T05:24:40.868Z,1432.5
2023-05-05T05:25:41.623Z,1584.21
2023-05-05T05:26:42.350Z,1595
2023-05-05T05:27:43.052Z,1590.86
2023-05-05T05:28:43.783Z,1593.36
2023-05-05T05:29:44.430Z,1611.71
2023-05-05T05:30:45.110Z,1681.71
2023-05-05T05:31:45.121Z,1647.5
2023-05-05T05:32:46.114Z,1636.71
2023-05-05T05:33:46.768Z,1635.86
2023-05-05T05:34:47.558Z,1642.5
2023-05-05T05:35:48.252Z,1842.5
2023-05-05T05:36:48.834Z,2176.71
2023-05-05T05:37:49.775Z,2115
2023-05-05T05:38:50.509Z,2219.21
2023-05-05T05:39:51.291Z,2391.71
2023-05-05T05:40:52.004Z,2553.36
2023-05-05T05:41:52.651Z,3472.5
2023-05-05T05:42:53.333Z,3211.71
2023-05-05T05:43:54.190Z,2648.36
2023-05-05T05:44:54.905Z,2386.71
2023-05-05T05:45:55.792Z,2462.5
2023-05-05T05:46:56.464Z,2507.5
2023-05-05T05:47:57.240Z,2726.71
2023-05-05T05:48:57.979Z,2854.21
2023-05-05T05:49:58.770Z,3070
2023-05-05T05:50:59.657Z,3057.5
2023-05-05T05:52:00.253Z,2980
2023-05-05T05:53:00.818Z,3135
2023-05-05T05:54:01.284Z,3239.21
2023-05-05T05:55:01.790Z,2518.36
2023-05-05T05:56:02.302Z,2364.21
2023-05-05T05:57:02.788Z,2139.21
2023-05-05T05:58:03.275Z,2298.36
2023-05-05T05:59:04.070Z,2403.36
2023-05-05T06:00:04.962Z,2374.21
2023-05-05T06:01:05.827Z,2515
2023-05-05T06:02:06.464Z,2785
2023-05-05T06:03:07.132Z,3498.36
2023-05-05T06:04:08.113Z,3802.5
2023-05-05T06:05:08.700Z,4183.36
2023-05-05T06:06:09.226Z,4506.71
2023-05-05T06:07:09.753Z,4815.86
2023-05-05T06:08:10.363Z,5816.71
2023-05-05T06:09:11.063Z,8220.86
2023-05-05T06:10:26.564Z,7094.21
2023-05-05T06:11:12.034Z,7468.36
2023-05-05T06:12:12.640Z,8663.36
2023-05-05T06:13:13.129Z,9150.86
2023-05-05T06:14:13.659Z,8845.86
2023-05-05T06:15:14.185Z,7989.21
2023-05-05T06:16:14.823Z,7367.5
2023-05-05T06:17:15.263Z,7856.71
2023-05-05T06:18:15.691Z,8736.71
2023-05-05T06:19:16.228Z,8884.21
2023-05-05T06:20:17.033Z,7615.86
2023-05-05T06:21:17.763Z,7365
2023-05-05T06:22:18.389Z,7220
2023-05-05T06:23:18.970Z,7220
2023-05-05T06:24:19.505Z,5895.86
2023-05-05T06:25:20.121Z,4710.86
2023-05-05T06:26:20.991Z,7472.5
2023-05-05T06:27:21.781Z,7775.86
2023-05-05T06:28:22.397Z,7978.36
2023-05-05T06:29:23.107Z,8881.71
2023-05-05T06:30:23.857Z,9186.71
2023-05-05T06:31:24.669Z,9138.36
2023-05-05T06:32:25.218Z,9320
2023-05-05T06:33:25.853Z,9410
2023-05-05T06:34:26.732Z,10021.7
2023-05-05T06:35:27.631Z,9985.86
2023-05-05T06:36:28.257Z,9515.86
2023-05-05T06:37:28.972Z,9327.5
2023-05-05T06:38:29.595Z,8590.86
2023-05-05T06:39:30.234Z,7956.71
2023-05-05T06:40:30.859Z,6710
2023-05-05T06:41:31.590Z,7095.86
2023-05-05T06:42:32.299Z,6041.71
2023-05-05T06:43:33.107Z,7849.21
2023-05-05T06:44:33.984Z,8920.86
2023-05-05T06:45:34.782Z,7694.21
2023-05-05T06:46:35.773Z,7213.36
2023-05-05T06:47:36.494Z,6930
2023-05-05T06:48:37.166Z,6357.5
2023-05-05T06:49:37.933Z,5425
2023-05-05T06:50:39.004Z,6972.5
2023-05-05T06:51:40.077Z,7982.5
2023-05-05T06:52:39.574Z,8034.21
2023-05-05T06:53:40.434Z,9278.36
2023-05-05T06:54:41.340Z,8631.71
2023-05-05T06:55:42.241Z,6781.71
2023-05-05T06:56:43.016Z,8785
2023-05-05T06:57:43.822Z,7514.21
2023-05-05T06:58:44.720Z,5666.71
2023-05-05T06:59:45.576Z,6429.21
2023-05-05T07:00:46.604Z,5568.36
2023-05-05T07:01:47.473Z,5770
2023-05-05T07:02:48.336Z,6033.36
2023-05-05T07:03:49.168Z,7241.71
2023-05-05T07:04:49.120Z,6751.71
2023-05-05T07:05:49.966Z,9392.5
2023-05-05T07:06:50.718Z,9304.21
2023-05-05T07:07:51.580Z,9652.5
2023-05-05T07:08:51.676Z,9625.86
2023-05-05T07:09:52.788Z,7249.21
2023-05-05T07:10:53.481Z,10082.5
2023-05-05T07:11:54.309Z,9974.21
2023-05-05T07:12:55.278Z,9891.71
2023-05-05T07:13:55.293Z,10501.7
2023-05-05T07:14:55.314Z,10639.2
2023-05-05T07:15:55.360Z,10768.4
2023-05-05T07:16:55.738Z,10845
2023-05-05T07:17:56.442Z,10989.2
2023-05-05T07:18:57.315Z,10813.4
2023-05-05T07:19:58.316Z,11034.2
2023-05-05T07:20:58.450Z,10748.4
2023-05-05T07:21:58.500Z,9982.5
2023-05-05T07:22:58.566Z,10052.5
2023-05-05T07:23:58.622Z,10301.7
2023-05-05T07:24:58.616Z,10191.7
2023-05-05T07:25:58.789Z,10380.9
2023-05-05T07:26:58.925Z,11223.4
2023-05-05T07:27:59.874Z,11300
2023-05-05T07:28:59.945Z,11474.2
2023-05-05T07:29:59.968Z,11363.4
2023-05-05T07:31:00.965Z,11844.2
2023-05-05T07:32:01.208Z,11895
2023-05-05T07:33:02.127Z,11624.2
2023-05-05T07:34:02.419Z,11731.7
2023-05-05T07:35:02.476Z,11907.5
2023-05-05T07:36:03.475Z,12122.5
2023-05-05T07:37:03.532Z,12397.5
2023-05-05T07:38:03.878Z,12847.5
2023-05-05T07:39:04.867Z,11965.9
2023-05-05T07:40:04.991Z,11657.5
2023-05-05T07:41:05.057Z,12235.9
2023-05-05T07:42:05.010Z,13747.5
2023-05-05T07:43:05.128Z,14578.4
2023-05-05T07:44:05.368Z,14885.9
2023-05-05T07:45:05.441Z,13970.9
2023-05-05T07:46:05.783Z,14341.7
2023-05-05T07:47:06.056Z,14232.5
2023-05-05T07:48:06.124Z,12885
2023-05-05T07:49:07.060Z,14015
2023-05-05T07:50:07.347Z,14831.7
2023-05-05T07:51:07.416Z,16287.5
2023-05-05T07:52:07.435Z,16738.4
2023-05-05T07:53:14.504Z,17553.4
2023-05-05T07:54:07.657Z,17962.5
2023-05-05T07:55:07.702Z,20916.7
2023-05-05T07:56:08.017Z,21187.5
2023-05-05T07:57:08.535Z,17619.2
2023-05-05T07:58:08.806Z,14744.2
2023-05-05T07:59:08.829Z,12150
2023-05-05T08:00:09.728Z,8737.5
2023-05-05T08:01:10.233Z,8587.5
2023-05-05T08:02:10.665Z,9198.36
2023-05-05T08:03:12.161Z,8928.36
2023-05-05T08:04:11.533Z,7923.36
2023-05-05T08:05:11.989Z,8241.71
2023-05-05T08:06:11.889Z,7324.21
2023-05-05T08:07:12.031Z,6455.86
2023-05-05T08:08:12.129Z,8725.86
2023-05-05T08:09:12.443Z,10850.9
2023-05-05T08:10:13.652Z,11759.2
2023-05-05T08:11:14.001Z,11414.2
2023-05-05T08:12:14.194Z,10289.2
2023-05-05T08:13:14.800Z,11054.2
2023-05-05T08:14:14.990Z,12139.2
2023-05-05T08:15:15.120Z,12171.7
2023-05-05T08:16:15.399Z,12182.5
2023-05-05T08:17:16.698Z,12176.7
2023-05-05T08:18:15.749Z,11413.4
2023-05-05T08:19:28.065Z,11093.4
2023-05-05T08:20:15.981Z,11058.4
2023-05-05T08:21:15.979Z,11711.7
2023-05-05T08:22:16.617Z,9700
2023-05-05T08:23:16.595Z,7917.5
2023-05-05T08:24:16.891Z,8328.36
2023-05-05T08:25:17.261Z,8630
2023-05-05T08:26:18.184Z,10695.9
2023-05-05T08:27:18.476Z,12293.4
2023-05-05T08:28:18.673Z,10964.2
2023-05-05T08:29:18.990Z,10086.7
2023-05-05T08:30:19.152Z,9648.36
2023-05-05T08:31:19.304Z,9202.5
2023-05-05T08:32:19.583Z,11637.5
2023-05-05T08:33:20.937Z,13132.5
2023-05-05T08:34:21.087Z,14189.2
2023-05-05T08:35:21.254Z,14287.5
2023-05-05T08:36:21.323Z,13839.2
2023-05-05T08:37:21.766Z,11334.2
2023-05-05T08:38:21.989Z,11411.7
2023-05-05T08:39:22.138Z,12018.4
2023-05-05T08:40:22.790Z,13010
2023-05-05T08:41:22.887Z,14020
2023-05-05T08:42:35.521Z,15791.7
2023-05-05T08:43:23.414Z,17142.5
2023-05-05T08:44:23.933Z,17440
2023-05-05T08:45:24.526Z,15879.2
2023-05-05T08:46:25.124Z,17428.4
2023-05-05T08:47:25.204Z,14765
2023-05-05T08:48:25.294Z,12309.2
2023-05-05T08:49:26.042Z,10137.5
2023-05-05T08:50:26.659Z,13032.5
2023-05-05T08:51:27.246Z,16930
2023-05-05T08:52:27.864Z,20304.2
2023-05-05T08:53:28.228Z,20154.2
2023-05-05T08:54:28.421Z,11533.4
2023-05-05T08:55:28.996Z,3882.5
2023-05-05T08:56:29.203Z,3550
2023-05-05T08:57:29.614Z,3497.5
2023-05-05T08:58:30.352Z,3501.71
2023-05-05T08:59:30.866Z,3523.36
2023-05-05T09:00:31.427Z,3549.21
2023-05-05T09:01:31.858Z,3596.71
2023-05-05T09:02:32.532Z,3789.21
2023-05-05T09:03:32.982Z,3915.86
2023-05-05T09:04:33.430Z,3870
2023-05-05T09:05:34.153Z,3776.71
2023-05-05T09:06:34.772Z,3673.36
2023-05-05T09:07:35.146Z,3603.36
2023-05-05T09:08:35.494Z,3504.21
2023-05-05T09:09:36.152Z,3465
2023-05-05T09:10:36.455Z,3460.86
2023-05-05T09:11:36.920Z,3468.36
2023-05-05T09:12:37.567Z,3432.5
2023-05-05T09:13:45.736Z,3367.5
2023-05-05T09:14:39.062Z,3391.71
2023-05-05T09:15:39.902Z,3330
2023-05-05T09:16:40.291Z,3527.5
2023-05-05T09:17:40.769Z,3635.86
2023-05-05T09:18:40.854Z,3516.71
2023-05-05T09:19:41.630Z,3490.86
2023-05-05T09:20:42.060Z,3448.36
2023-05-05T09:21:42.680Z,3374.21
2023-05-05T09:22:43.274Z,3234.21
2023-05-05T09:23:43.694Z,3045.86
2023-05-05T09:24:44.334Z,2964.21
2023-05-05T09:25:45.081Z,2952.5
2023-05-05T09:26:45.899Z,2916.71
2023-05-05T09:27:46.633Z,2916.71
2023-05-05T09:28:47.098Z,2978.36
2023-05-05T09:29:47.740Z,3045.86
2023-05-05T09:30:48.638Z,3144.21
2023-05-05T09:31:49.351Z,3163.36
2023-05-05T09:32:50.113Z,3158.36
2023-05-05T09:33:50.978Z,3126.71
2023-05-05T09:34:51.655Z,3080.86
2023-05-05T09:35:52.480Z,3050.86
2023-05-05T09:36:53.431Z,3044.21
2023-05-05T09:37:54.079Z,3081.71
2023-05-05T09:38:55.462Z,3178.36
2023-05-05T09:39:55.524Z,3327.5
2023-05-05T09:40:55.520Z,3347.5
2023-05-05T09:41:55.690Z,3278.36
2023-05-05T09:42:56.513Z,3229.21
2023-05-05T09:43:56.639Z,3205
2023-05-05T09:44:59.743Z,3312.5
2023-05-05T09:45:58.196Z,3756.71
2023-05-05T09:46:58.905Z,4320
2023-05-05T09:48:00.865Z,4240
2023-05-05T09:49:00.848Z,3827.5
2023-05-05T09:50:01.598Z,3495.86
2023-05-05T09:51:02.495Z,3708.36
2023-05-05T09:52:02.520Z,4432.5
2023-05-05T09:53:03.105Z,5290
2023-05-05T09:54:03.649Z,6080
2023-05-05T09:55:04.392Z,6538.36
2023-05-05T09:56:05.306Z,6660.86
2023-05-05T09:57:05.862Z,6531.71
2023-05-05T09:58:06.424Z,6300
2023-05-05T09:59:07.278Z,6086.71
2023-05-05T10:00:08.382Z,6005.86
2023-05-05T10:01:08.894Z,5895.86
2023-05-05T10:02:08.897Z,5970.86
2023-05-05T10:03:09.800Z,6011.71
2023-05-05T10:04:10.617Z,5889.21
2023-05-05T10:05:11.480Z,5686.71
2023-05-05T10:06:12.793Z,5171.71
2023-05-05T10:07:13.308Z,4464.21
2023-05-05T10:08:14.004Z,3855
2023-05-05T10:09:14.963Z,3415
2023-05-05T10:10:15.496Z,3100
2023-05-05T10:11:15.556Z,2910
2023-05-05T10:12:16.384Z,2805.86
2023-05-05T10:13:16.928Z,2768.36
2023-05-05T10:14:17.414Z,2759.21
2023-05-05T10:15:18.310Z,2735
2023-05-05T10:16:18.498Z,2686.71
2023-05-05T10:17:19.267Z,2580.86
2023-05-05T10:18:20.130Z,2548.36
2023-05-05T10:19:21.445Z,2582.5
2023-05-05T10:20:22.121Z,2621.71
2023-05-05T10:21:22.817Z,2618.36
2023-05-05T10:22:23.305Z,2634.21
2023-05-05T10:23:23.983Z,2674.21
2023-05-05T10:24:24.157Z,2695
2023-05-05T10:25:24.410Z,2685.86
2023-05-05T10:26:25.201Z,2655
2023-05-05T10:27:25.762Z,2633.36
2023-05-05T10:28:26.451Z,2600
2023-05-05T10:29:27.038Z,2530.86
2023-05-05T10:30:27.802Z,2475
2023-05-05T10:31:28.002Z,2395.86
2023-05-05T10:32:51.922Z,2356.71
2023-05-05T10:33:32.056Z,2319.21
2023-05-05T10:34:30.193Z,2286.71
2023-05-05T10:35:30.829Z,2281.71
2023-05-05T10:36:31.702Z,2311.71
2023-05-05T10:37:31.652Z,2320.86
2023-05-05T10:38:32.541Z,2299.21
2023-05-05T10:39:33.185Z,2250.86
2023-05-05T10:40:33.365Z,2210
2023-05-05T10:41:34.220Z,2221.71
2023-05-05T10:42:35.566Z,2192.5
2023-05-05T10:43:35.286Z,2145.86
2023-05-05T10:44:35.986Z,2114.21
2023-05-05T10:45:36.199Z,2098.36
2023-05-05T10:46:36.866Z,2097.5
2023-05-05T10:47:38.331Z,2099.21
2023-05-05T10:48:38.962Z,2090.86
2023-05-05T10:49:39.757Z,2072.5
2023-05-05T10:50:40.417Z,2055
2023-05-05T10:51:41.434Z,2032.5
2023-05-05T10:52:42.105Z,2011.71
2023-05-05T10:53:42.160Z,1998.36
2023-05-05T10:54:42.213Z,1997.5
2023-05-05T10:55:42.479Z,2013.36
2023-05-05T10:56:42.511Z,1978.36
2023-05-05T10:57:42.739Z,1875.86
2023-05-05T10:58:58.476Z,1837.5
2023-05-05T10:59:43.681Z,1995
2023-05-05T11:00:44.076Z,2519.21
2023-05-05T11:01:44.238Z,3175.86
2023-05-05T11:02:44.385Z,3490
2023-05-05T11:03:44.512Z,3260
2023-05-05T11:04:44.701Z,3075.86
2023-05-05T11:05:45.267Z,3050.86
2023-05-05T11:06:46.093Z,3002.5
2023-05-05T11:07:46.427Z,2905
2023-05-05T11:08:46.592Z,2643.36
2023-05-05T11:09:46.757Z,2379.21
2023-05-05T11:10:46.956Z,2277.5
2023-05-05T11:11:47.596Z,2311.71
2023-05-05T11:12:47.454Z,2654.21
2023-05-05T11:13:47.519Z,2981.71
2023-05-05T11:14:47.562Z,2955.86
2023-05-05T11:15:47.964Z,2851.71
2023-05-05T11:16:48.990Z,2757.5
2023-05-05T11:17:49.108Z,2640.86
2023-05-05T11:18:49.457Z,1164.21
2023-05-05T11:19:49.835Z,1015.86
2023-05-05T11:20:50.204Z,2243.36
2023-05-05T11:21:50.406Z,1092.5
2023-05-05T11:22:50.555Z,2315
2023-05-05T11:23:50.515Z,1461.71
2023-05-05T11:24:50.932Z,1120.86
2023-05-05T11:25:51.451Z,2628.36
2023-05-05T11:26:52.558Z,2736.71
2023-05-05T11:27:52.477Z,2848.36
2023-05-05T11:28:52.622Z,2845
2023-05-05T11:29:53.066Z,2927.5
2023-05-05T11:30:53.609Z,3061.71
2023-05-05T11:31:54.065Z,3259.21
2023-05-05T11:32:54.567Z,3299.21
2023-05-05T11:33:55.444Z,3396.71
2023-05-05T11:34:55.544Z,3500
2023-05-05T11:35:56.016Z,3551.71
2023-05-05T11:36:57.031Z,3480
2023-05-05T11:37:57.263Z,3420.86
2023-05-05T11:38:57.310Z,3429.21
2023-05-05T11:39:58.030Z,3429.21
2023-05-05T11:40:58.541Z,3377.5
2023-05-05T11:41:59.642Z,3273.36
2023-05-05T11:43:00.127Z,3140
2023-05-05T11:44:00.611Z,3045.86
2023-05-05T11:45:01.533Z,2965.86
2023-05-05T11:46:01.849Z,2863.36
2023-05-05T11:47:02.778Z,2822.5
2023-05-05T11:48:03.555Z,2930.86
2023-05-05T11:49:04.446Z,3020
2023-05-05T11:50:05.206Z,3065.86
2023-05-05T11:51:06.081Z,3050
2023-05-05T11:52:07.070Z,3075.86
2023-05-05T11:53:07.116Z,3022.5
2023-05-05T11:54:07.971Z,2861.71
2023-05-05T11:55:08.821Z,3008.36
2023-05-05T11:56:09.009Z,3424.21
2023-05-05T11:57:09.996Z,3575
2023-05-05T11:58:10.168Z,3544.21
2023-05-05T11:59:11.157Z,3333.36
2023-05-05T12:00:11.709Z,3130.86
2023-05-05T12:01:11.901Z,2930
2023-05-05T12:02:12.917Z,2693.36
2023-05-05T12:03:13.688Z,2526.71
2023-05-05T12:04:13.769Z,2440
2023-05-05T12:05:14.538Z,2363.36
2023-05-05T12:06:14.767Z,2268.36
2023-05-05T12:07:15.115Z,2168.36
2023-05-05T12:08:15.428Z,2045
2023-05-05T12:09:15.609Z,1930.86
2023-05-05T12:10:15.950Z,1856.71
2023-05-05T12:11:16.212Z,1803.36
2023-05-05T12:12:16.960Z,1752.5
2023-05-05T12:13:17.365Z,1701.71
2023-05-05T12:14:17.524Z,1651.71
2023-05-05T12:15:17.900Z,1621.71
2023-05-05T12:16:18.268Z,1602.5
2023-05-05T12:17:18.775Z,1561.71
2023-05-05T12:18:19.423Z,1523.36
2023-05-05T12:19:19.610Z,1501.71
2023-05-05T12:20:20.256Z,1517.5
2023-05-05T12:21:20.887Z,1525.86
2023-05-05T12:22:21.413Z,1528.36
2023-05-05T12:23:22.506Z,1530
2023-05-05T12:24:23.259Z,1546.71
2023-05-05T12:25:23.980Z,1590.86
2023-05-05T12:26:24.899Z,1639.21
2023-05-05T12:27:25.091Z,1657.5
2023-05-05T12:28:25.424Z,1634.21
2023-05-05T12:29:26.221Z,1590.86
2023-05-05T12:30:27.514Z,1527.5
2023-05-05T12:31:29.012Z,1458.36
2023-05-05T12:32:29.183Z,1382.5
2023-05-05T12:33:29.697Z,1313.36
2023-05-05T12:34:29.873Z,1256.71
2023-05-05T12:35:30.158Z,1221.71
2023-05-05T12:36:30.776Z,1205.86
2023-05-05T12:37:31.021Z,1197.5
2023-05-05T12:38:31.657Z,1205.86
2023-05-05T12:39:32.363Z,1231.71
2023-05-05T12:40:32.073Z,1255
2023-05-05T12:41:32.065Z,1281.71
2023-05-05T12:42:32.529Z,1295
2023-05-05T12:43:33.702Z,1305
2023-05-05T12:44:33.974Z,1333.36
2023-05-05T12:45:34.693Z,1364.21
2023-05-05T12:46:36.486Z,1387.5
2023-05-05T12:47:36.181Z,1389.21
2023-05-05T12:48:36.332Z,1390
2023-05-05T12:49:36.720Z,1399.21
2023-05-05T12:50:36.870Z,1395
2023-05-05T12:51:37.891Z,1370.86
2023-05-05T12:52:37.988Z,1342.5
2023-05-05T12:53:38.113Z,1316.71
2023-05-05T12:54:38.884Z,1295.86
2023-05-05T12:55:39.873Z,1275.86
2023-05-05T12:56:40.266Z,1259.21
2023-05-05T12:57:41.043Z,1233.36
2023-05-05T12:58:42.091Z,1206.71
2023-05-05T12:59:43.114Z,1185
2023-05-05T13:00:43.856Z,1164.21
2023-05-05T13:01:44.179Z,1137.5
2023-05-05T13:02:44.972Z,1115
2023-05-05T13:03:45.134Z,1090.86
2023-05-05T13:04:46.182Z,1078.36
2023-05-05T13:05:46.674Z,1072.5
2023-05-05T13:06:47.406Z,1070.86
2023-05-05T13:07:48.137Z,1075
2023-05-05T13:08:48.885Z,1077.5
2023-05-05T13:09:49.478Z,1077.5
2023-05-05T13:10:49.863Z,1086.71
2023-05-05T13:11:50.168Z,1104.21
2023-05-05T13:12:50.593Z,1124.21
2023-05-05T13:13:51.202Z,1147.5
2023-05-05T13:14:51.493Z,1165
2023-05-05T13:15:52.089Z,1184.21
2023-05-05T13:16:52.709Z,1195.86
2023-05-05T13:17:53.112Z,1202.5
2023-05-05T13:18:53.786Z,1200
2023-05-05T13:19:54.486Z,1195
2023-05-05T13:20:54.836Z,1193.36
2023-05-05T13:21:54.865Z,1192.5
2023-05-05T13:22:55.364Z,1192.5
2023-05-05T13:24:01.313Z,1187.5
2023-05-05T13:24:56.094Z,1183.36
2023-05-05T13:25:56.912Z,1170
2023-05-05T13:26:58.284Z,1155.86
2023-05-05T13:27:57.868Z,1142.5
2023-05-05T13:28:58.326Z,1128.36
2023-05-05T13:29:58.483Z,1113.36
2023-05-05T13:30:58.926Z,1103.36
2023-05-05T13:31:59.814Z,1100
2023-05-05T13:33:00.185Z,1105.86
2023-05-05T13:34:00.872Z,1121.71
2023-05-05T13:35:02.245Z,1134.21
2023-05-05T13:36:02.835Z,1142.5
2023-05-05T13:37:03.196Z,1145
2023-05-05T13:38:03.598Z,1141.71
2023-05-05T13:39:03.770Z,1135
2023-05-05T13:40:04.115Z,1133.36
2023-05-05T13:41:04.529Z,1126.71
2023-05-05T13:42:05.161Z,1120.86
2023-05-05T13:43:05.437Z,1120.86
2023-05-05T13:44:06.361Z,1116.71
2023-05-05T13:45:07.550Z,1114.21
2023-05-05T13:46:19.274Z,1107.5
2023-05-05T13:47:08.857Z,1084.21
2023-05-05T13:48:09.673Z,1074.21
2023-05-05T13:49:10.645Z,1075
2023-05-05T13:50:11.664Z,1094.21
2023-05-05T13:51:12.277Z,1117.5
2023-05-05T13:52:12.662Z,1136.71
2023-05-05T13:53:12.828Z,1137.5
2023-05-05T13:54:13.656Z,1124.21
2023-05-05T13:55:13.534Z,1095
2023-05-05T13:56:14.643Z,1075
2023-05-05T13:57:15.676Z,1071.71
2023-05-05T13:58:15.842Z,1080
2023-05-05T13:59:16.028Z,1089.21
2023-05-05T14:00:16.610Z,1105
2023-05-05T14:01:16.406Z,1125
2023-05-05T14:02:17.538Z,1142.5
2023-05-05T14:03:17.977Z,1103.36
2023-05-05T14:04:18.044Z,1106.71
2023-05-05T14:05:18.077Z,1144.21
2023-05-05T14:06:18.145Z,1160.86
2023-05-05T14:07:18.599Z,1177.5
2023-05-05T14:08:18.734Z,1176.71
2023-05-05T14:09:19.326Z,1199.21
2023-05-05T14:10:19.158Z,1228.36
2023-05-05T14:11:20.061Z,1238.36
2023-05-05T14:12:20.224Z,1244.21
2023-05-05T14:13:21.171Z,1226.71
2023-05-05T14:14:21.427Z,1192.5
2023-05-05T14:15:22.860Z,1183.36
2023-05-05T14:16:23.066Z,1151.71
2023-05-05T14:17:23.490Z,1150.86
2023-05-05T14:18:24.113Z,1156.71
2023-05-05T14:19:24.318Z,1175.86
2023-05-05T14:20:24.395Z,1192.5
2023-05-05T14:21:24.454Z,1164.21
2023-05-05T14:22:24.512Z,1216.71
2023-05-05T14:23:25.248Z,1204.21
2023-05-05T14:24:26.016Z,1199.21
2023-05-05T14:25:27.007Z,1233.36
2023-05-05T14:26:27.760Z,1231.71
2023-05-05T14:27:27.668Z,1233.36
2023-05-05T14:28:28.237Z,1268.36
2023-05-05T14:29:28.220Z,1334.21
2023-05-05T14:30:28.826Z,1366.71
2023-05-05T14:31:29.590Z,1379.21
2023-05-05T14:32:29.758Z,1437.5
2023-05-05T14:33:31.346Z,1470
2023-05-05T14:34:31.610Z,1470.86
2023-05-05T14:35:32.464Z,1449.21
2023-05-05T14:36:33.508Z,1451.71
2023-05-05T14:37:33.911Z,1445
2023-05-05T14:38:34.668Z,1413.36
2023-05-05T14:39:35.580Z,1400
2023-05-05T14:40:36.653Z,1373.36
2023-05-05T14:41:36.946Z,1383.36
2023-05-05T14:42:37.312Z,1345
2023-05-05T14:43:37.907Z,1354.21
2023-05-05T14:44:38.650Z,1354.21
2023-05-05T14:45:39.718Z,1365
2023-05-05T14:46:39.818Z,1355.86
2023-05-05T14:47:40.987Z,1350.86
2023-05-05T14:48:41.242Z,1367.5
2023-05-05T14:49:41.269Z,1386.71
2023-05-05T14:50:41.465Z,1421.71
2023-05-05T14:51:41.448Z,1451.71
2023-05-05T14:52:41.548Z,1473.36
2023-05-05T14:53:41.805Z,1494.21
2023-05-05T14:54:42.885Z,1562.5
2023-05-05T14:55:43.235Z,1725
2023-05-05T14:56:43.835Z,1963.36
2023-05-05T14:57:43.983Z,2066.71
2023-05-05T14:58:44.449Z,2032.5
2023-05-05T14:59:45.239Z,1981.71
2023-05-05T15:00:45.687Z,1962.5
2023-05-05T15:01:46.554Z,1904.21
2023-05-05T15:02:46.889Z,1888.36
2023-05-05T15:03:47.831Z,2015.86
2023-05-05T15:04:49.905Z,2254.21
2023-05-05T15:05:49.527Z,2469.21
2023-05-05T15:06:50.342Z,2639.21
2023-05-05T15:07:51.101Z,2773.36
2023-05-05T15:08:51.938Z,2852.5
2023-05-05T15:09:52.760Z,2795.86
2023-05-05T15:10:52.797Z,2658.36
2023-05-05T15:11:52.959Z,2500
2023-05-05T15:12:53.236Z,2322.5
2023-05-05T15:13:53.319Z,2145.86
2023-05-05T15:14:54.142Z,2000.86
2023-05-05T15:15:54.437Z,1890.86
2023-05-05T15:16:54.224Z,1816.71
2023-05-05T15:17:54.369Z,1771.71
2023-05-05T15:18:54.609Z,1722.5
2023-05-05T15:19:55.617Z,1675
2023-05-05T15:20:56.424Z,1639.21
2023-05-05T15:21:56.543Z,1613.36
2023-05-05T15:22:57.603Z,1582.5
2023-05-05T15:23:57.870Z,1565.86
2023-05-05T15:24:58.894Z,1622.5
2023-05-05T15:25:59.654Z,1659.21
2023-05-05T15:27:00.356Z,1560.86